Time;durP1;ratioP1;P1;durP2;ratioP2;P2;SDS_P1;SDS_P2;PMS_P1;PMS_P2;Temp;Humidity;BMP_temperature;BMP_pressure;BME280_temperature;BME280_humidity;BME280_pressure;Samples;Min_cycle;Max_cycle;Signal;HPM_P1;HPM_P2
2023/12/01 00:01:03;;;;;;;44.50;23.23;;;3.10;99.90;;;;;;5014853;28;20637;-83
2023/12/01 00:03:29;;;;;;;40.17;23.13;;;3.00;99.90;;;;;;5013163;28;20174;-81
2023/12/01 00:05:54;;;;;;;45.27;25.20;;;3.10;99.90;;;;;;5013999;28;20166;-81
2023/12/01 00:08:20;;;;;;;41.23;22.70;;;3.20;99.90;;;;;;5018636;28;20241;-81
2023/12/01 00:10:46;;;;;;;43.27;23.67;;;3.00;99.90;;;;;;5033913;28;20174;-81
2023/12/01 00:13:11;;;;;;;46.13;24.67;;;3.10;99.90;;;;;;5034501;28;20546;-80
2023/12/01 00:15:37;;;;;;;42.40;23.40;;;3.00;99.90;;;;;;5020739;28;20163;-82
2023/12/01 00:18:03;;;;;;;47.40;24.07;;;3.00;99.90;;;;;;5016446;28;20212;-82
2023/12/01 00:20:28;;;;;;;43.60;23.20;;;3.10;99.90;;;;;;5014817;28;20577;-82
2023/12/01 00:22:54;;;;;;;39.80;22.97;;;3.30;99.90;;;;;;5015706;28;20241;-83
2023/12/01 00:25:20;;;;;;;33.97;20.20;;;3.30;99.90;;;;;;5014747;28;20167;-84
2023/12/01 00:27:46;;;;;;;36.07;20.10;;;3.00;99.90;;;;;;5015239;28;20267;-83
2023/12/01 00:30:11;;;;;;;35.17;21.20;;;2.90;99.90;;;;;;5012475;28;20197;-83
2023/12/01 00:32:37;;;;;;;41.23;22.60;;;3.10;99.90;;;;;;5013082;28;20273;-84
2023/12/01 00:35:03;;;;;;;40.03;22.20;;;3.10;99.90;;;;;;5014761;28;20167;-84
2023/12/01 00:37:30;;;;;;;40.70;22.53;;;3.10;99.90;;;;;;5015864;28;20175;-83
2023/12/01 00:39:55;;;;;;;40.40;20.63;;;3.10;99.40;;;;;;5014397;28;20174;-81
2023/12/01 00:42:21;;;;;;;39.73;20.67;;;3.10;99.80;;;;;;5013903;28;20553;-83
2023/12/01 00:44:47;;;;;;;42.80;22.00;;;3.00;99.90;;;;;;5014412;28;20174;-83
2023/12/01 00:47:13;;;;;;;41.63;22.97;;;2.90;99.90;;;;;;5014879;28;20723;-83
2023/12/01 00:49:38;;;;;;;36.63;22.30;;;3.00;99.90;;;;;;5013704;28;20181;-84
2023/12/01 00:52:05;;;;;;;39.50;22.83;;;3.10;99.90;;;;;;5015550;28;20178;-82
2023/12/01 00:54:31;;;;;;;40.43;21.87;;;3.20;99.90;;;;;;5014138;28;20176;-83
2023/12/01 00:56:57;;;;;;;38.27;22.37;;;3.20;99.90;;;;;;5012893;28;20171;-84
2023/12/01 00:59:24;;;;;;;42.50;23.20;;;3.50;99.90;;;;;;5013990;28;20171;-86
2023/12/01 01:01:49;;;;;;;39.20;22.73;;;3.40;98.70;;;;;;5012504;28;20205;-81
2023/12/01 01:04:15;;;;;;;36.37;22.30;;;3.40;96.90;;;;;;5014198;28;20174;-83
2023/12/01 01:06:41;;;;;;;36.63;21.00;;;3.20;94.80;;;;;;5013822;28;20230;-81
2023/12/01 01:09:07;;;;;;;37.53;21.60;;;3.10;94.60;;;;;;5013028;28;20277;-83
2023/12/01 01:11:32;;;;;;;37.40;22.43;;;3.20;95.50;;;;;;5012999;28;20174;-84
2023/12/01 01:13:59;;;;;;;36.93;22.10;;;3.10;95.80;;;;;;5013069;28;20700;-83
2023/12/01 01:16:25;;;;;;;39.97;22.83;;;3.00;96.50;;;;;;5013902;28;20580;-81
2023/12/01 01:18:50;;;;;;;38.70;22.10;;;2.90;98.70;;;;;;5013099;28;20300;-84
2023/12/01 01:21:17;;;;;;;38.93;22.37;;;3.10;99.90;;;;;;5012238;28;20231;-84
2023/12/01 01:23:43;;;;;;;39.03;22.63;;;3.00;99.10;;;;;;5013216;28;20602;-83
2023/12/01 01:26:08;;;;;;;36.80;21.73;;;2.90;99.70;;;;;;5014797;28;20193;-82
2023/12/01 01:28:34;;;;;;;44.07;24.07;;;2.80;99.90;;;;;;5015684;28;20217;-83
2023/12/01 01:31:00;;;;;;;38.27;21.67;;;2.80;99.90;;;;;;5016870;28;20565;-84
2023/12/01 01:33:25;;;;;;;41.27;22.97;;;2.70;99.90;;;;;;5016114;28;20170;-82
2023/12/01 01:35:51;;;;;;;40.37;21.70;;;2.60;99.90;;;;;;5018864;28;20162;-85
2023/12/01 01:38:17;;;;;;;39.40;22.83;;;2.60;99.90;;;;;;5020289;28;20228;-83
2023/12/01 01:40:42;;;;;;;42.17;24.53;;;2.50;99.90;;;;;;5017608;28;20172;-83
2023/12/01 01:43:08;;;;;;;38.73;21.57;;;2.50;99.90;;;;;;5014896;28;20643;-83
2023/12/01 01:45:35;;;;;;;40.30;23.57;;;2.50;99.90;;;;;;5022982;28;20621;-84
2023/12/01 01:48:00;;;;;;;42.27;23.70;;;2.50;99.90;;;;;;5032179;28;20229;-83
2023/12/01 01:50:26;;;;;;;42.90;23.63;;;2.60;99.90;;;;;;5022166;28;20634;-83
2023/12/01 01:52:55;;;;;;;40.90;25.23;;;2.70;99.90;;;;;;5016496;28;20166;-82
2023/12/01 01:55:21;;;;;;;40.50;23.97;;;2.60;99.90;;;;;;5012996;28;20542;-82
2023/12/01 01:57:48;;;;;;;44.30;24.43;;;2.80;99.90;;;;;;5013626;28;20175;-84
2023/12/01 02:00:17;;;;;;;40.47;24.10;;;2.90;99.90;;;;;;5012196;28;20206;-83
2023/12/01 02:02:44;;;;;;;40.23;24.77;;;2.90;99.90;;;;;;5014568;28;20541;-84
2023/12/01 02:05:13;;;;;;;38.47;23.10;;;2.80;99.90;;;;;;5013525;28;20175;-83
2023/12/01 02:07:39;;;;;;;35.47;23.57;;;2.90;99.90;;;;;;5017002;28;20198;-84
2023/12/01 02:10:06;;;;;;;36.43;23.70;;;2.90;99.90;;;;;;5018354;28;20185;-82
2023/12/01 02:12:32;;;;;;;42.63;25.23;;;3.00;99.90;;;;;;5029613;28;20170;-84
2023/12/01 02:14:57;;;;;;;39.17;25.33;;;3.20;99.90;;;;;;5033540;28;20182;-82
2023/12/01 02:17:23;;;;;;;37.20;22.60;;;3.40;99.00;;;;;;5026570;28;20201;-83
2023/12/01 02:19:52;;;;;;;39.53;23.90;;;3.10;96.00;;;;;;5020036;28;20225;-82
2023/12/01 02:22:18;;;;;;;37.67;23.43;;;3.00;96.50;;;;;;5014119;28;20213;-83
2023/12/01 02:24:44;;;;;;;34.67;21.43;;;3.00;96.80;;;;;;5013509;28;20170;-82
2023/12/01 02:27:10;;;;;;;36.20;24.10;;;2.70;96.90;;;;;;5012309;28;20243;-82
2023/12/01 02:29:35;;;;;;;35.70;24.20;;;2.90;98.20;;;;;;5012404;28;20589;-82
2023/12/01 02:32:01;;;;;;;35.07;23.10;;;2.80;98.00;;;;;;5013181;28;20175;-82
2023/12/01 02:34:27;;;;;;;34.43;22.20;;;2.80;98.00;;;;;;5015729;28;20159;-82
2023/12/01 02:36:53;;;;;;;34.93;23.27;;;2.90;96.90;;;;;;5036498;28;20202;-82
2023/12/01 02:39:19;;;;;;;34.53;22.97;;;3.20;96.40;;;;;;5022736;28;20166;-83
2023/12/01 02:41:46;;;;;;;33.87;22.43;;;3.00;95.10;;;;;;5013734;28;20186;-83
2023/12/01 02:44:12;;;;;;;35.37;22.43;;;2.90;94.60;;;;;;5012206;28;20182;-82
2023/12/01 02:46:37;;;;;;;36.47;23.03;;;2.90;95.20;;;;;;5012866;28;20162;-82
2023/12/01 02:49:03;;;;;;;34.37;22.37;;;3.00;94.10;;;;;;5013676;28;20222;-83
2023/12/01 02:51:29;;;;;;;38.70;23.00;;;2.90;93.80;;;;;;5012610;28;20210;-82
2023/12/01 02:53:55;;;;;;;34.63;21.57;;;2.90;94.20;;;;;;5011289;28;20522;-83
2023/12/01 02:56:21;;;;;;;32.97;22.00;;;3.00;93.10;;;;;;5013676;28;20178;-82
2023/12/01 02:58:47;;;;;;;36.23;23.27;;;2.90;93.40;;;;;;5013224;28;20171;-83
2023/12/01 03:01:14;;;;;;;37.07;24.13;;;3.00;93.70;;;;;;5014883;28;20546;-82
2023/12/01 03:03:40;;;;;;;32.87;21.03;;;3.00;92.70;;;;;;5026276;28;20194;-82
2023/12/01 03:06:06;;;;;;;34.03;22.00;;;2.90;92.10;;;;;;5030312;28;20170;-82
2023/12/01 03:08:32;;;;;;;33.33;22.93;;;2.80;91.50;;;;;;5027342;28;20221;-81
2023/12/01 03:10:57;;;;;;;35.90;23.97;;;3.00;91.90;;;;;;5033461;28;20163;-82
2023/12/01 03:13:23;;;;;;;34.70;22.77;;;3.10;91.60;;;;;;5027784;28;20171;-82
2023/12/01 03:15:50;;;;;;;36.20;23.43;;;3.20;91.10;;;;;;5020550;28;20634;-83
2023/12/01 03:18:15;;;;;;;36.07;24.87;;;3.20;90.50;;;;;;5013194;28;20224;-82
2023/12/01 03:20:41;;;;;;;38.27;24.50;;;3.00;91.60;;;;;;5016666;28;20573;-83
2023/12/01 03:23:08;;;;;;;36.77;23.70;;;3.10;92.90;;;;;;5014080;28;20680;-83
2023/12/01 03:25:34;;;;;;;35.60;21.50;;;3.10;92.00;;;;;;5016770;28;20167;-83
2023/12/01 03:28:00;;;;;;;34.23;22.10;;;2.80;90.70;;;;;;5014195;28;20233;-83
2023/12/01 03:30:25;;;;;;;39.37;23.57;;;2.70;92.60;;;;;;5016382;28;20576;-83
2023/12/01 03:32:52;;;;;;;34.70;21.97;;;2.80;93.40;;;;;;5016483;28;20534;-83
2023/12/01 03:35:24;;;;;;;38.30;23.10;;;2.70;93.30;;;;;;5016192;28;20170;-82
2023/12/01 03:37:55;;;;;;;37.10;23.73;;;2.50;95.40;;;;;;5015873;28;20190;-83
2023/12/01 03:40:21;;;;;;;37.30;23.77;;;2.60;97.50;;;;;;5015771;28;20178;-82
2023/12/01 03:42:49;;;;;;;39.10;23.93;;;2.60;97.60;;;;;;5014377;28;20174;-82
2023/12/01 03:45:16;;;;;;;36.50;23.50;;;2.60;99.00;;;;;;5013585;28;20174;-83
2023/12/01 03:47:46;;;;;;;37.00;25.10;;;2.70;98.30;;;;;;5016085;28;20221;-80
2023/12/01 03:50:13;;;;;;;36.90;22.57;;;2.60;97.20;;;;;;5015533;28;20197;-81
2023/12/01 03:52:43;;;;;;;41.93;26.37;;;2.70;98.00;;;;;;5014717;28;20174;-82
2023/12/01 03:55:11;;;;;;;36.77;23.63;;;2.60;98.50;;;;;;5015031;28;20197;-82
2023/12/01 03:57:37;;;;;;;36.03;23.93;;;2.70;99.10;;;;;;5017696;28;20235;-82
2023/12/01 04:00:16;;;;;;;39.83;23.63;;;2.70;98.60;;;;;;5039597;28;20162;-81
2023/12/01 04:02:46;;;;;;;37.53;24.00;;;2.80;97.10;;;;;;5021856;28;20257;-81
2023/12/01 04:05:37;;;;;;;35.17;22.80;;;2.70;96.30;;;;;;5015449;28;20174;-83
2023/12/01 04:08:03;;;;;;;34.80;21.43;;;2.70;96.10;;;;;;5013160;28;20289;-83
2023/12/01 04:10:29;;;;;;;32.90;22.13;;;2.70;94.20;;;;;;5015241;28;20198;-83
2023/12/01 04:12:55;;;;;;;38.43;22.37;;;2.60;95.10;;;;;;5014897;28;20526;-82
2023/12/01 04:15:24;;;;;;;38.23;21.87;;;2.60;94.00;;;;;;5015328;28;20488;-81
2023/12/01 04:17:50;;;;;;;34.60;23.33;;;2.60;93.40;;;;;;5015129;28;20213;-81
2023/12/01 04:20:21;;;;;;;35.30;23.27;;;2.80;93.80;;;;;;5016360;28;20183;-81
2023/12/01 04:22:51;;;;;;;35.67;22.37;;;2.70;93.20;;;;;;5015277;28;20665;-81
2023/12/01 04:25:17;;;;;;;33.83;22.00;;;2.60;92.20;;;;;;5012719;28;20604;-82
2023/12/01 04:27:44;;;;;;;35.67;23.10;;;2.60;93.80;;;;;;5013433;28;20244;-82
2023/12/01 04:30:14;;;;;;;37.77;23.87;;;2.70;94.50;;;;;;5013703;28;20174;-83
2023/12/01 04:32:48;;;;;;;41.30;25.83;;;2.70;95.00;;;;;;5017583;28;20162;-80
2023/12/01 04:35:15;;;;;;;40.73;26.33;;;2.80;95.50;;;;;;5026581;28;20165;-82
2023/12/01 04:37:41;;;;;;;43.53;26.13;;;2.80;96.10;;;;;;5014203;28;20174;-82
2023/12/01 04:40:14;;;;;;;41.43;24.77;;;2.70;99.90;;;;;;5014755;28;20167;-81
2023/12/01 04:42:52;;;;;;;40.00;23.50;;;2.60;99.90;;;;;;5015034;28;20174;-82
2023/12/01 04:45:26;;;;;;;41.87;24.43;;;2.50;99.90;;;;;;5014943;28;20182;-82
2023/12/01 04:47:53;;;;;;;49.00;27.63;;;2.50;99.90;;;;;;5013920;28;20209;-84
2023/12/01 04:50:20;;;;;;;40.07;23.43;;;2.40;99.90;;;;;;5013290;28;20174;-82
2023/12/01 04:52:58;;;;;;;41.67;26.93;;;2.40;99.90;;;;;;5019098;28;20205;-81
2023/12/01 04:55:28;;;;;;;41.37;26.07;;;2.40;99.90;;;;;;5021075;28;20215;-82
2023/12/01 04:57:55;;;;;;;44.30;27.40;;;2.30;99.90;;;;;;5016285;28;20182;-82
2023/12/01 05:00:25;;;;;;;49.87;28.67;;;2.30;99.90;;;;;;5030342;28;20170;-80
2023/12/01 05:03:05;;;;;;;46.47;27.27;;;2.30;99.90;;;;;;5033452;28;20223;-81
2023/12/01 05:05:33;;;;;;;45.30;27.17;;;2.40;99.90;;;;;;5020976;28;20177;-82
2023/12/01 05:08:00;;;;;;;45.07;27.17;;;2.50;99.90;;;;;;5012661;28;20252;-83
2023/12/01 05:10:28;;;;;;;43.17;25.37;;;2.30;99.90;;;;;;5012805;28;20585;-81
2023/12/01 05:12:56;;;;;;;41.90;24.10;;;2.30;99.90;;;;;;5013630;28;20178;-82
2023/12/01 05:15:27;;;;;;;42.70;23.77;;;2.10;98.90;;;;;;5014896;28;20304;-82
2023/12/01 05:18:06;;;;;;;42.97;23.50;;;2.10;95.70;;;;;;5014068;28;20197;-82
2023/12/01 05:20:32;;;;;;;44.63;25.20;;;2.10;94.70;;;;;;5013959;28;20182;-82
2023/12/01 05:23:09;;;;;;;45.40;26.37;;;2.10;94.40;;;;;;5011735;28;20318;-82
2023/12/01 05:25:37;;;;;;;44.27;24.70;;;2.20;94.10;;;;;;5011992;28;20170;-82
2023/12/01 05:28:05;;;;;;;46.33;25.77;;;2.10;93.30;;;;;;5012766;28;20206;-83
2023/12/01 05:30:36;;;;;;;44.87;25.13;;;2.20;92.50;;;;;;5012616;28;20213;-82
2023/12/01 05:33:04;;;;;;;45.60;25.97;;;2.10;92.30;;;;;;5013092;28;20181;-82
2023/12/01 05:35:31;;;;;;;42.13;25.37;;;2.20;93.70;;;;;;5012618;28;20189;-82
2023/12/01 05:37:58;;;;;;;45.50;26.77;;;2.30;93.20;;;;;;5013449;28;20170;-83
2023/12/01 05:40:34;;;;;;;50.50;28.03;;;2.40;92.70;;;;;;5013055;28;20197;-82
2023/12/01 05:43:00;;;;;;;46.70;27.70;;;2.30;92.70;;;;;;5011116;28;20170;-82
2023/12/01 05:45:27;;;;;;;44.07;25.60;;;2.50;92.90;;;;;;5013562;28;20170;-82
2023/12/01 05:47:54;;;;;;;43.67;25.43;;;2.50;91.60;;;;;;5012221;28;20645;-81
2023/12/01 05:50:27;;;;;;;50.33;27.83;;;2.30;90.60;;;;;;5012535;28;20174;-82
2023/12/01 05:52:55;;;;;;;48.67;27.80;;;2.40;92.70;;;;;;4996444;28;20269;-82
2023/12/01 05:55:25;;;;;;;42.13;22.93;;;2.40;92.30;;;;;;5014504;28;20173;-82
2023/12/01 05:57:53;;;;;;;45.80;25.37;;;2.30;91.90;;;;;;5013919;28;20170;-81
2023/12/01 06:00:29;;;;;;;50.17;25.63;;;2.30;92.70;;;;;;5012797;28;20175;-81
2023/12/01 06:02:59;;;;;;;50.17;26.47;;;2.20;93.90;;;;;;5011887;28;20170;-81
2023/12/01 06:05:26;;;;;;;45.30;26.70;;;2.10;93.50;;;;;;5011931;28;20212;-82
2023/12/01 06:07:54;;;;;;;44.90;25.87;;;2.20;94.10;;;;;;5013248;28;20202;-85
2023/12/01 06:10:21;;;;;;;43.20;26.73;;;2.20;94.30;;;;;;5037041;28;20159;-81
2023/12/01 06:12:47;;;;;;;45.60;25.07;;;2.30;93.90;;;;;;5029067;28;20174;-83
2023/12/01 06:15:18;;;;;;;38.87;22.77;;;2.40;93.60;;;;;;5018590;28;20207;-82
2023/12/01 06:17:48;;;;;;;40.33;22.67;;;2.40;91.80;;;;;;5018413;28;20311;-83
2023/12/01 06:20:18;;;;;;;44.23;25.00;;;2.10;87.50;;;;;;5022311;28;20174;-83
2023/12/01 06:22:56;;;;;;;44.87;24.10;;;2.20;84.90;;;;;;5027443;28;20173;-81
2023/12/01 06:25:28;;;;;;;45.33;24.23;;;2.30;84.80;;;;;;5029976;28;20166;-82
2023/12/01 06:27:58;;;;;;;42.30;23.77;;;2.30;85.60;;;;;;5030604;28;20282;-81
2023/12/01 06:30:25;;;;;;;42.40;24.20;;;2.20;83.80;;;;;;5019461;28;20603;-82
2023/12/01 06:32:54;;;;;;;41.70;23.37;;;2.20;82.40;;;;;;5015825;28;20549;-82
2023/12/01 06:35:21;;;;;;;38.97;22.17;;;2.10;81.90;;;;;;5016888;28;20170;-82
2023/12/01 06:37:47;;;;;;;40.83;22.27;;;2.10;83.20;;;;;;5019621;28;20166;-83
2023/12/01 06:40:17;;;;;;;37.53;22.73;;;2.10;85.50;;;;;;5021086;28;20163;-82
2023/12/01 06:42:52;;;;;;;40.87;22.77;;;2.10;85.10;;;;;;5017752;28;20296;-83
2023/12/01 06:45:19;;;;;;;37.00;20.97;;;2.10;86.30;;;;;;5020182;28;20752;-85
2023/12/01 06:47:48;;;;;;;37.27;21.63;;;2.10;82.60;;;;;;5018090;28;20210;-81
2023/12/01 06:50:15;;;;;;;36.37;21.53;;;2.00;80.70;;;;;;5017555;28;20169;-84
2023/12/01 06:52:52;;;;;;;38.97;22.57;;;1.90;81.30;;;;;;5021424;28;20201;-83
2023/12/01 06:55:18;;;;;;;34.07;19.43;;;1.90;82.70;;;;;;5029209;28;20166;-84
2023/12/01 06:57:46;;;;;;;35.53;19.73;;;1.90;84.90;;;;;;5021646;28;20180;-84
2023/12/01 07:00:29;;;;;;;35.40;20.63;;;1.80;87.80;;;;;;5018960;28;20237;-83
2023/12/01 07:03:03;;;;;;;35.80;20.50;;;1.80;89.80;;;;;;5016464;28;20182;-83
2023/12/01 07:05:31;;;;;;;42.20;21.67;;;1.80;91.00;;;;;;5016038;28;20189;-85
2023/12/01 07:07:58;;;;;;;36.30;20.37;;;1.90;91.70;;;;;;5024696;28;20217;-85
2023/12/01 07:10:27;;;;;;;35.97;20.77;;;2.00;91.60;;;;;;5023730;28;20556;-86
2023/12/01 07:12:53;;;;;;;36.90;20.67;;;1.90;91.80;;;;;;5025232;28;20178;-85
2023/12/01 07:15:20;;;;;;;40.93;21.57;;;1.90;92.90;;;;;;5021020;28;20166;-85
2023/12/01 07:17:51;;;;;;;35.67;21.07;;;2.00;92.70;;;;;;5015597;28;20294;-82
2023/12/01 07:20:18;;;;;;;36.93;22.67;;;2.00;92.90;;;;;;5016023;28;20244;-82
2023/12/01 07:22:45;;;;;;;44.13;20.97;;;2.00;93.40;;;;;;5025604;28;20174;-84
2023/12/01 07:25:21;;;;;;;35.67;19.83;;;1.90;93.10;;;;;;5027289;28;20176;-83
2023/12/01 07:27:48;;;;;;;33.93;17.27;;;1.90;93.20;;;;;;5016144;28;20280;-83
2023/12/01 07:30:16;;;;;;;33.90;16.53;;;1.80;93.10;;;;;;5014986;28;20543;-82
2023/12/01 07:32:43;;;;;;;37.17;20.40;;;1.70;93.50;;;;;;5007287;28;20256;-82
2023/12/01 07:35:09;;;;;;;35.63;19.53;;;1.70;95.30;;;;;;5007085;28;20178;-83
2023/12/01 07:37:35;;;;;;;36.07;19.73;;;1.70;94.20;;;;;;5023933;28;20162;-80
2023/12/01 07:40:01;;;;;;;35.17;17.97;;;1.60;93.80;;;;;;5020901;28;20175;-84
2023/12/01 07:42:27;;;;;;;36.07;20.53;;;1.50;95.00;;;;;;4998794;28;20201;-82
2023/12/01 07:44:52;;;;;;;40.23;20.27;;;1.50;96.30;;;;;;4998009;28;20241;-83
2023/12/01 07:47:18;;;;;;;37.00;20.37;;;1.60;95.00;;;;;;4997463;28;20670;-82
2023/12/01 07:49:44;;;;;;;35.77;20.60;;;1.60;95.10;;;;;;4996641;28;20647;-84
2023/12/01 07:52:09;;;;;;;37.20;20.17;;;1.70;94.40;;;;;;5000143;28;20171;-82
2023/12/01 07:54:35;;;;;;;36.00;19.27;;;1.70;94.20;;;;;;5015084;28;20658;-82
2023/12/01 07:57:01;;;;;;;39.03;19.70;;;1.70;93.60;;;;;;5018409;28;20202;-82
2023/12/01 07:59:27;;;;;;;39.77;21.23;;;1.70;93.30;;;;;;5020877;28;20166;-82
2023/12/01 08:01:53;;;;;;;44.40;22.20;;;1.60;92.50;;;;;;5015859;28;20163;-83
2023/12/01 08:04:19;;;;;;;48.03;23.40;;;1.50;91.90;;;;;;5013532;28;20547;-82
2023/12/01 08:06:45;;;;;;;41.73;21.23;;;1.60;93.70;;;;;;5031187;28;20630;-82
2023/12/01 08:09:16;;;;;;;42.53;22.13;;;1.60;94.40;;;;;;5016462;28;20206;-82
2023/12/01 08:11:43;;;;;;;45.50;24.73;;;1.60;94.20;;;;;;5016262;28;20254;-83
2023/12/01 08:14:10;;;;;;;41.57;21.73;;;1.70;94.30;;;;;;5015539;28;20173;-83
2023/12/01 08:16:36;;;;;;;47.23;23.33;;;1.90;93.90;;;;;;5013952;28;20501;-82
2023/12/01 08:19:02;;;;;;;41.90;20.63;;;1.70;93.90;;;;;;5017464;28;20205;-82
2023/12/01 08:21:27;;;;;;;45.47;22.90;;;1.80;93.50;;;;;;5018878;28;20173;-82
2023/12/01 08:23:53;;;;;;;43.73;21.37;;;1.80;94.50;;;;;;5030759;28;20151;-83
2023/12/01 08:26:22;;;;;;;47.57;25.20;;;1.60;95.60;;;;;;5038648;28;20194;-83
2023/12/01 08:28:53;;;;;;;48.37;24.83;;;1.60;96.60;;;;;;5032454;28;20214;-83
2023/12/01 08:31:43;;;;;;;49.27;23.60;;;1.60;96.30;;;;;;5015684;28;20168;-82
2023/12/01 08:34:09;;;;;;;42.50;23.17;;;1.60;96.60;;;;;;5014775;28;20240;-83
2023/12/01 08:36:35;;;;;;;51.67;24.80;;;1.60;97.00;;;;;;5016798;28;20265;-83
2023/12/01 08:39:02;;;;;;;47.87;23.43;;;1.60;95.80;;;;;;5034804;28;20273;-83
2023/12/01 08:41:28;;;;;;;51.13;26.00;;;1.70;96.00;;;;;;5023401;28;20174;-83
2023/12/01 08:43:54;;;;;;;53.47;25.53;;;1.80;96.10;;;;;;5026707;28;20181;-83
2023/12/01 08:46:19;;;;;;;52.50;24.97;;;1.60;97.60;;;;;;5026553;28;20174;-84
2023/12/01 08:48:46;;;;;;;51.97;22.40;;;1.60;99.10;;;;;;5040517;28;20229;-83
2023/12/01 08:51:13;;;;;;;51.50;27.07;;;1.60;99.50;;;;;;5021413;28;20166;-83
2023/12/01 08:53:39;;;;;;;45.13;22.60;;;1.70;99.90;;;;;;5018931;28;20167;-83
2023/12/01 08:56:05;;;;;;;51.50;25.87;;;1.70;99.90;;;;;;5018868;28;20248;-84
2023/12/01 08:58:32;;;;;;;49.00;25.43;;;1.70;99.90;;;;;;5015439;28;20664;-83
2023/12/01 09:00:59;;;;;;;51.17;26.57;;;1.70;99.90;;;;;;5033646;28;20249;-84
2023/12/01 09:03:24;;;;;;;49.20;25.63;;;1.70;99.90;;;;;;5016189;28;20193;-83
2023/12/01 09:05:50;;;;;;;43.63;22.50;;;1.70;99.90;;;;;;5018057;28;20178;-84
2023/12/01 09:08:16;;;;;;;48.73;25.47;;;1.60;99.20;;;;;;5018034;28;20206;-84
2023/12/01 09:10:41;;;;;;;49.47;25.80;;;1.60;98.30;;;;;;5017282;28;20162;-82
2023/12/01 09:13:08;;;;;;;50.53;26.47;;;1.60;99.50;;;;;;5016302;28;20666;-84
2023/12/01 09:15:34;;;;;;;54.53;25.50;;;1.60;99.90;;;;;;5015474;28;20178;-83
2023/12/01 09:18:00;;;;;;;47.73;24.47;;;1.50;99.90;;;;;;5017181;28;20210;-84
2023/12/01 09:20:25;;;;;;;55.60;28.27;;;1.50;99.90;;;;;;5017058;28;20202;-82
2023/12/01 09:22:51;;;;;;;53.97;28.33;;;1.50;99.90;;;;;;5016136;28;20174;-84
2023/12/01 09:25:17;;;;;;;53.03;27.40;;;1.60;99.90;;;;;;5016502;28;20589;-84
2023/12/01 09:27:43;;;;;;;50.90;27.43;;;1.60;99.90;;;;;;5016691;28;20697;-83
2023/12/01 09:30:13;;;;;;;45.70;25.00;;;1.60;99.90;;;;;;5031663;28;20170;-83
2023/12/01 09:32:40;;;;;;;49.30;26.17;;;1.60;99.90;;;;;;5014516;28;20257;-83
2023/12/01 09:35:06;;;;;;;49.10;26.03;;;1.60;99.20;;;;;;5016101;28;20182;-84
2023/12/01 09:37:32;;;;;;;47.57;25.70;;;1.70;99.10;;;;;;5014591;28;20194;-83
2023/12/01 09:39:58;;;;;;;52.30;27.77;;;1.80;99.90;;;;;;5015367;28;20265;-83
2023/12/01 09:42:25;;;;;;;53.00;27.67;;;1.70;99.90;;;;;;5015504;28;20259;-84
2023/12/01 09:44:55;;;;;;;49.07;25.53;;;1.80;99.90;;;;;;5016292;28;20296;-84
2023/12/01 09:47:24;;;;;;;55.53;26.77;;;1.80;99.90;;;;;;5016055;28;20290;-84
2023/12/01 09:49:51;;;;;;;50.70;28.13;;;1.80;99.90;;;;;;5020711;28;20178;-83
2023/12/01 09:52:17;;;;;;;52.90;26.77;;;1.70;99.90;;;;;;5026676;28;20220;-83
2023/12/01 09:54:43;;;;;;;49.17;23.77;;;1.80;99.90;;;;;;5030194;28;20150;-84
2023/12/01 09:57:10;;;;;;;49.40;26.00;;;1.80;99.90;;;;;;5020320;28;20186;-84
2023/12/01 09:59:36;;;;;;;47.60;25.50;;;1.60;99.90;;;;;;5017561;28;20224;-83
2023/12/01 10:02:03;;;;;;;49.23;25.97;;;1.60;99.90;;;;;;5017505;28;20171;-80
2023/12/01 10:04:30;;;;;;;54.50;27.30;;;1.60;99.90;;;;;;5016997;28;20178;-83
2023/12/01 10:07:00;;;;;;;44.13;24.53;;;1.60;99.90;;;;;;5031614;28;20564;-80
2023/12/01 10:09:38;;;;;;;55.17;27.40;;;1.60;99.90;;;;;;5014398;28;20190;-83
2023/12/01 10:12:07;;;;;;;49.87;26.60;;;1.60;99.90;;;;;;5024123;28;20281;-83
2023/12/01 10:14:35;;;;;;;48.00;26.67;;;1.70;99.90;;;;;;5031651;28;20178;-84
2023/12/01 10:17:05;;;;;;;47.30;25.87;;;1.70;99.90;;;;;;5012445;28;20194;-83
2023/12/01 10:19:33;;;;;;;46.60;26.13;;;1.70;99.90;;;;;;5013650;28;20224;-83
2023/12/01 10:21:59;;;;;;;43.40;23.93;;;2.00;99.90;;;;;;5014706;28;20745;-82
2023/12/01 10:24:25;;;;;;;44.70;25.77;;;1.80;99.90;;;;;;5014947;28;20174;-83
2023/12/01 10:26:53;;;;;;;47.13;25.87;;;1.80;99.90;;;;;;5016175;28;20516;-82
2023/12/01 10:29:30;;;;;;;42.43;23.30;;;1.90;99.90;;;;;;5017446;28;20582;-81
2023/12/01 10:32:00;;;;;;;44.80;25.50;;;1.70;99.90;;;;;;5018655;28;20169;-81
2023/12/01 10:34:29;;;;;;;44.10;24.20;;;1.90;99.90;;;;;;5022436;28;20158;-81
2023/12/01 10:36:55;;;;;;;46.40;26.43;;;1.90;99.90;;;;;;5041722;28;20197;-84
2023/12/01 10:39:25;;;;;;;45.60;24.73;;;1.80;99.90;;;;;;5027201;28;20181;-83
2023/12/01 10:41:55;;;;;;;46.70;24.07;;;1.80;99.90;;;;;;5019336;28;20653;-83
2023/12/01 10:44:24;;;;;;;42.40;23.47;;;1.80;99.90;;;;;;5019375;28;20167;-83
2023/12/01 10:46:52;;;;;;;39.20;25.33;;;1.80;99.90;;;;;;5019293;28;20173;-82
2023/12/01 10:49:18;;;;;;;43.73;25.07;;;1.90;99.90;;;;;;5018657;28;20214;-81
2023/12/01 10:51:55;;;;;;;41.67;24.57;;;2.00;99.90;;;;;;5021297;28;20313;-84
2023/12/01 10:54:24;;;;;;;37.43;21.13;;;2.10;99.90;;;;;;5025477;28;20248;-83
2023/12/01 10:57:14;;;;;;;37.13;22.60;;;2.20;99.90;;;;;;5032288;28;20166;-82
2023/12/01 10:59:45;;;;;;;40.27;23.57;;;2.00;99.50;;;;;;5026972;28;20190;-84
2023/12/01 11:02:14;;;;;;;35.63;22.97;;;1.90;99.30;;;;;;5021189;28;20221;-83
2023/12/01 11:04:48;;;;;;;35.23;21.23;;;1.90;99.20;;;;;;5018600;28;20258;-82
2023/12/01 11:07:35;;;;;;;36.93;22.63;;;1.80;99.90;;;;;;5017898;28;20198;-83
2023/12/01 11:10:06;;;;;;;42.93;21.73;;;1.70;99.90;;;;;;5020502;28;20166;-84
2023/12/01 11:12:38;;;;;;;39.73;20.63;;;1.70;99.90;;;;;;5017336;28;20257;-83
2023/12/01 11:15:20;;;;;;;38.43;22.37;;;1.60;99.90;;;;;;5027963;28;20167;-82
2023/12/01 11:17:46;;;;;;;41.47;25.17;;;1.60;99.90;;;;;;5021121;28;20336;-84
2023/12/01 11:20:44;;;;;;;44.60;24.50;;;1.70;99.90;;;;;;5028969;28;20197;-81
2023/12/01 11:23:13;;;;;;;46.47;23.17;;;1.80;99.90;;;;;;5028065;28;20174;-83
2023/12/01 11:25:41;;;;;;;50.00;26.43;;;1.80;99.90;;;;;;5026224;28;20177;-81
2023/12/01 11:28:43;;;;;;;39.07;22.27;;;1.80;99.90;;;;;;5017552;28;20210;-81
2023/12/01 11:33:50;;;;;;;50.53;27.33;;;1.60;99.90;;;;;;5017388;28;20174;-80
2023/12/01 11:36:22;;;;;;;49.80;27.27;;;1.60;99.90;;;;;;5017626;28;20248;-81
2023/12/01 11:39:27;;;;;;;54.57;28.43;;;1.70;99.90;;;;;;5033604;28;20221;-81
2023/12/01 11:41:58;;;;;;;48.37;24.67;;;1.80;99.90;;;;;;5017788;28;20185;-80
2023/12/01 11:44:26;;;;;;;45.00;24.33;;;1.80;99.90;;;;;;5032763;28;20206;-80
2023/12/01 11:46:59;;;;;;;56.20;27.97;;;1.80;99.90;;;;;;5015215;28;20178;-81
2023/12/01 11:49:30;;;;;;;47.80;23.90;;;1.80;99.90;;;;;;5017142;28;20202;-81
2023/12/01 11:52:08;;;;;;;56.10;27.37;;;1.80;99.90;;;;;;5016659;28;20178;-81
2023/12/01 11:54:36;;;;;;;49.37;26.77;;;1.90;99.90;;;;;;5015036;28;20174;-80
2023/12/01 11:57:05;;;;;;;53.40;26.57;;;1.80;99.90;;;;;;5016794;28;20162;-82
2023/12/01 11:59:32;;;;;;;50.07;26.20;;;1.80;99.90;;;;;;5014864;28;20650;-83
2023/12/01 12:01:57;;;;;;;53.33;26.97;;;1.80;99.90;;;;;;5016326;28;20177;-81
2023/12/01 12:04:24;;;;;;;48.37;25.60;;;1.90;99.90;;;;;;5016368;28;20162;-81
2023/12/01 12:06:52;;;;;;;47.47;25.93;;;1.90;99.90;;;;;;5016149;28;20166;-80
2023/12/01 12:09:18;;;;;;;47.90;27.03;;;2.00;99.90;;;;;;5025672;28;20235;-81
2023/12/01 12:11:53;;;;;;;50.63;26.07;;;2.10;99.90;;;;;;5028965;28;20178;-81
2023/12/01 12:14:26;;;;;;;48.07;24.90;;;2.30;99.90;;;;;;5016770;28;20609;-81
2023/12/01 12:16:52;;;;;;;47.60;26.23;;;2.20;98.10;;;;;;5015343;28;20198;-82
2023/12/01 12:19:19;;;;;;;53.77;28.90;;;2.10;98.20;;;;;;5016096;28;20279;-82
2023/12/01 12:21:46;;;;;;;48.33;25.33;;;2.10;98.90;;;;;;5017031;28;20194;-83
2023/12/01 12:24:12;;;;;;;46.67;25.20;;;2.10;98.60;;;;;;5016748;28;20186;-82
2023/12/01 12:26:38;;;;;;;48.07;25.30;;;2.00;98.00;;;;;;5015687;28;20280;-82
2023/12/01 12:29:05;;;;;;;47.13;26.10;;;2.00;99.30;;;;;;5016751;28;20210;-82
2023/12/01 12:31:35;;;;;;;44.10;25.73;;;2.00;99.90;;;;;;5016491;28;20181;-82
2023/12/01 12:34:04;;;;;;;43.07;23.87;;;2.20;99.90;;;;;;5015598;28;20182;-81
2023/12/01 12:36:31;;;;;;;45.77;24.17;;;2.20;98.10;;;;;;5016885;28;20170;-82
2023/12/01 12:39:03;;;;;;;46.07;25.07;;;2.10;98.70;;;;;;5015669;28;20663;-84
2023/12/01 12:41:32;;;;;;;42.40;24.73;;;2.30;98.80;;;;;;5021135;28;20158;-82
2023/12/01 12:44:03;;;;;;;40.47;21.93;;;2.20;96.90;;;;;;5038455;28;20179;-81